sensor_id;sensor_type;location;lat;lon;timestamp;P1;durP1;ratioP1;P2;durP2;ratioP2
9801;SDS011;4940;50.900;4.672;2023-01-15T00:01:19;3.17;;;0.73;;
9801;SDS011;4940;50.900;4.672;2023-01-15T00:03:48;2.10;;;0.60;;
9801;SDS011;4940;50.900;4.672;2023-01-15T00:06:17;1.65;;;0.60;;
9801;SDS011;4940;50.900;4.672;2023-01-15T00:08:44;2.47;;;0.80;;
9801;SDS011;4940;50.900;4.672;2023-01-15T00:11:12;1.83;;;0.73;;
9801;SDS011;4940;50.900;4.672;2023-01-15T00:13:40;6.50;;;1.15;;
9801;SDS011;4940;50.900;4.672;2023-01-15T00:16:09;4.50;;;1.15;;
9801;SDS011;4940;50.900;4.672;2023-01-15T00:18:37;3.38;;;0.60;;
9801;SDS011;4940;50.900;4.672;2023-01-15T00:21:06;4.40;;;1.05;;
9801;SDS011;4940;50.900;4.672;2023-01-15T00:23:37;3.13;;;1.00;;
9801;SDS011;4940;50.900;4.672;2023-01-15T00:26:22;2.20;;;0.63;;
9801;SDS011;4940;50.900;4.672;2023-01-15T00:29:10;2.22;;;0.65;;
9801;SDS011;4940;50.900;4.672;2023-01-15T00:31:38;2.15;;;0.57;;
9801;SDS011;4940;50.900;4.672;2023-01-15T00:34:06;1.77;;;0.57;;
9801;SDS011;4940;50.900;4.672;2023-01-15T00:36:33;3.45;;;1.02;;
9801;SDS011;4940;50.900;4.672;2023-01-15T00:39:03;4.60;;;1.10;;
9801;SDS011;4940;50.900;4.672;2023-01-15T00:41:31;6.55;;;0.93;;
9801;SDS011;4940;50.900;4.672;2023-01-15T00:43:58;6.70;;;1.23;;
9801;SDS011;4940;50.900;4.672;2023-01-15T00:46:26;3.10;;;1.08;;
9801;SDS011;4940;50.900;4.672;2023-01-15T00:48:53;4.60;;;1.00;;
9801;SDS011;4940;50.900;4.672;2023-01-15T00:51:21;5.07;;;1.00;;
9801;SDS011;4940;50.900;4.672;2023-01-15T00:53:48;6.75;;;1.20;;
9801;SDS011;4940;50.900;4.672;2023-01-15T00:56:17;3.58;;;0.85;;
9801;SDS011;4940;50.900;4.672;2023-01-15T00:58:44;3.38;;;1.30;;
9801;SDS011;4940;50.900;4.672;2023-01-15T01:01:12;3.80;;;0.80;;
9801;SDS011;4940;50.900;4.672;2023-01-15T01:03:40;3.15;;;0.93;;
9801;SDS011;4940;50.900;4.672;2023-01-15T01:06:07;8.20;;;1.02;;
9801;SDS011;4940;50.900;4.672;2023-01-15T01:08:35;5.20;;;1.13;;
9801;SDS011;4940;50.900;4.672;2023-01-15T01:11:04;1.60;;;0.77;;
9801;SDS011;4940;50.900;4.672;2023-01-15T01:13:33;5.32;;;1.35;;
9801;SDS011;4940;50.900;4.672;2023-01-15T01:16:01;5.55;;;1.15;;
9801;SDS011;4940;50.900;4.672;2023-01-15T01:18:29;10.23;;;1.40;;
9801;SDS011;4940;50.900;4.672;2023-01-15T01:20:56;3.58;;;0.80;;
9801;SDS011;4940;50.900;4.672;2023-01-15T01:23:23;6.00;;;0.98;;
9801;SDS011;4940;50.900;4.672;2023-01-15T01:25:51;4.15;;;1.23;;
9801;SDS011;4940;50.900;4.672;2023-01-15T01:28:18;4.50;;;1.15;;
9801;SDS011;4940;50.900;4.672;2023-01-15T01:30:47;6.00;;;1.08;;
9801;SDS011;4940;50.900;4.672;2023-01-15T01:33:14;2.40;;;1.13;;
9801;SDS011;4940;50.900;4.672;2023-01-15T01:35:46;5.25;;;1.40;;
9801;SDS011;4940;50.900;4.672;2023-01-15T01:38:14;2.17;;;1.13;;
9801;SDS011;4940;50.900;4.672;2023-01-15T01:40:41;5.63;;;0.88;;
9801;SDS011;4940;50.900;4.672;2023-01-15T01:43:11;6.28;;;1.00;;
9801;SDS011;4940;50.900;4.672;2023-01-15T01:45:44;7.25;;;1.05;;
9801;SDS011;4940;50.900;4.672;2023-01-15T01:48:13;2.97;;;0.77;;
9801;SDS011;4940;50.900;4.672;2023-01-15T01:50:43;6.57;;;0.98;;
9801;SDS011;4940;50.900;4.672;2023-01-15T01:53:13;4.75;;;0.90;;
9801;SDS011;4940;50.900;4.672;2023-01-15T01:55:43;5.30;;;1.00;;
9801;SDS011;4940;50.900;4.672;2023-01-15T01:58:10;7.78;;;1.20;;
9801;SDS011;4940;50.900;4.672;2023-01-15T02:00:39;2.92;;;0.80;;
9801;SDS011;4940;50.900;4.672;2023-01-15T02:03:10;2.72;;;1.13;;
9801;SDS011;4940;50.900;4.672;2023-01-15T02:05:39;6.00;;;0.93;;
9801;SDS011;4940;50.900;4.672;2023-01-15T02:08:12;7.43;;;1.65;;
9801;SDS011;4940;50.900;4.672;2023-01-15T02:10:39;4.70;;;1.13;;
9801;SDS011;4940;50.900;4.672;2023-01-15T02:13:07;2.50;;;0.90;;
9801;SDS011;4940;50.900;4.672;2023-01-15T02:15:42;5.82;;;0.90;;
9801;SDS011;4940;50.900;4.672;2023-01-15T02:18:14;6.43;;;0.85;;
9801;SDS011;4940;50.900;4.672;2023-01-15T02:20:49;7.53;;;1.30;;
9801;SDS011;4940;50.900;4.672;2023-01-15T02:23:26;5.80;;;1.10;;
9801;SDS011;4940;50.900;4.672;2023-01-15T02:26:07;7.53;;;1.45;;
9801;SDS011;4940;50.900;4.672;2023-01-15T02:28:50;3.60;;;0.98;;
9801;SDS011;4940;50.900;4.672;2023-01-15T02:31:20;5.13;;;0.95;;
9801;SDS011;4940;50.900;4.672;2023-01-15T02:33:54;8.05;;;1.40;;
9801;SDS011;4940;50.900;4.672;2023-01-15T02:36:26;5.65;;;1.52;;
9801;SDS011;4940;50.900;4.672;2023-01-15T02:38:55;4.47;;;0.80;;
9801;SDS011;4940;50.900;4.672;2023-01-15T02:41:25;2.42;;;0.88;;
9801;SDS011;4940;50.900;4.672;2023-01-15T02:43:57;2.22;;;0.80;;
9801;SDS011;4940;50.900;4.672;2023-01-15T02:46:28;4.28;;;1.05;;
9801;SDS011;4940;50.900;4.672;2023-01-15T02:48:58;5.15;;;1.25;;
9801;SDS011;4940;50.900;4.672;2023-01-15T02:51:30;5.35;;;0.80;;
9801;SDS011;4940;50.900;4.672;2023-01-15T02:54:05;3.92;;;0.80;;
9801;SDS011;4940;50.900;4.672;2023-01-15T02:56:36;7.00;;;1.60;;
9801;SDS011;4940;50.900;4.672;2023-01-15T02:59:10;6.05;;;1.42;;
9801;SDS011;4940;50.900;4.672;2023-01-15T03:01:42;4.07;;;1.00;;
9801;SDS011;4940;50.900;4.672;2023-01-15T03:04:13;8.30;;;1.15;;
9801;SDS011;4940;50.900;4.672;2023-01-15T03:06:45;4.45;;;1.15;;
9801;SDS011;4940;50.900;4.672;2023-01-15T03:09:16;5.10;;;1.30;;
9801;SDS011;4940;50.900;4.672;2023-01-15T03:11:46;4.85;;;1.05;;
9801;SDS011;4940;50.900;4.672;2023-01-15T03:14:22;3.58;;;1.20;;
9801;SDS011;4940;50.900;4.672;2023-01-15T03:16:57;6.32;;;1.45;;
9801;SDS011;4940;50.900;4.672;2023-01-15T03:19:28;11.57;;;1.63;;
9801;SDS011;4940;50.900;4.672;2023-01-15T03:22:04;5.97;;;0.88;;
9801;SDS011;4940;50.900;4.672;2023-01-15T03:24:36;3.63;;;0.68;;
9801;SDS011;4940;50.900;4.672;2023-01-15T03:27:05;6.25;;;1.25;;
9801;SDS011;4940;50.900;4.672;2023-01-15T03:29:35;3.58;;;1.13;;
9801;SDS011;4940;50.900;4.672;2023-01-15T03:32:05;7.30;;;1.58;;
9801;SDS011;4940;50.900;4.672;2023-01-15T03:34:35;5.88;;;1.20;;
9801;SDS011;4940;50.900;4.672;2023-01-15T03:37:07;7.38;;;0.88;;
9801;SDS011;4940;50.900;4.672;2023-01-15T03:39:34;5.50;;;1.30;;
9801;SDS011;4940;50.900;4.672;2023-01-15T03:42:05;3.22;;;1.02;;
9801;SDS011;4940;50.900;4.672;2023-01-15T03:44:48;8.02;;;1.60;;
9801;SDS011;4940;50.900;4.672;2023-01-15T03:47:31;3.72;;;0.70;;
9801;SDS011;4940;50.900;4.672;2023-01-15T03:50:09;3.80;;;1.10;;
9801;SDS011;4940;50.900;4.672;2023-01-15T03:52:44;6.43;;;1.20;;
9801;SDS011;4940;50.900;4.672;2023-01-15T03:55:16;3.35;;;1.00;;
9801;SDS011;4940;50.900;4.672;2023-01-15T03:57:48;2.70;;;1.08;;
9801;SDS011;4940;50.900;4.672;2023-01-15T04:00:20;2.30;;;0.65;;
9801;SDS011;4940;50.900;4.672;2023-01-15T04:02:49;3.50;;;0.70;;
9801;SDS011;4940;50.900;4.672;2023-01-15T04:05:18;5.95;;;1.60;;
9801;SDS011;4940;50.900;4.672;2023-01-15T04:07:47;4.10;;;1.00;;
9801;SDS011;4940;50.900;4.672;2023-01-15T04:10:16;1.75;;;0.85;;
9801;SDS011;4940;50.900;4.672;2023-01-15T04:12:44;3.58;;;0.80;;
9801;SDS011;4940;50.900;4.672;2023-01-15T04:15:11;5.18;;;0.70;;
9801;SDS011;4940;50.900;4.672;2023-01-15T04:17:40;3.38;;;0.95;;
9801;SDS011;4940;50.900;4.672;2023-01-15T04:20:08;3.78;;;0.98;;
9801;SDS011;4940;50.900;4.672;2023-01-15T04:22:36;3.75;;;0.70;;
9801;SDS011;4940;50.900;4.672;2023-01-15T04:25:04;4.18;;;0.70;;
9801;SDS011;4940;50.900;4.672;2023-01-15T04:27:32;4.10;;;1.17;;
9801;SDS011;4940;50.900;4.672;2023-01-15T04:30:00;6.82;;;1.10;;
9801;SDS011;4940;50.900;4.672;2023-01-15T04:32:27;3.60;;;1.13;;
9801;SDS011;4940;50.900;4.672;2023-01-15T04:34:56;3.58;;;0.98;;
9801;SDS011;4940;50.900;4.672;2023-01-15T04:37:23;3.10;;;0.82;;
9801;SDS011;4940;50.900;4.672;2023-01-15T04:39:51;7.78;;;0.80;;
9801;SDS011;4940;50.900;4.672;2023-01-15T04:42:18;2.47;;;0.98;;
9801;SDS011;4940;50.900;4.672;2023-01-15T04:45:03;4.25;;;1.00;;
9801;SDS011;4940;50.900;4.672;2023-01-15T04:47:31;2.65;;;1.00;;
9801;SDS011;4940;50.900;4.672;2023-01-15T04:50:00;7.60;;;1.02;;
9801;SDS011;4940;50.900;4.672;2023-01-15T04:52:28;7.65;;;0.93;;
9801;SDS011;4940;50.900;4.672;2023-01-15T04:54:55;2.33;;;0.90;;
9801;SDS011;4940;50.900;4.672;2023-01-15T04:57:23;7.05;;;1.33;;
9801;SDS011;4940;50.900;4.672;2023-01-15T04:59:50;3.75;;;0.75;;
9801;SDS011;4940;50.900;4.672;2023-01-15T05:02:17;2.53;;;0.70;;
9801;SDS011;4940;50.900;4.672;2023-01-15T05:04:45;7.40;;;1.20;;
9801;SDS011;4940;50.900;4.672;2023-01-15T05:07:14;5.10;;;1.05;;
9801;SDS011;4940;50.900;4.672;2023-01-15T05:09:41;5.03;;;0.88;;
9801;SDS011;4940;50.900;4.672;2023-01-15T05:12:08;3.20;;;0.80;;
9801;SDS011;4940;50.900;4.672;2023-01-15T05:14:36;4.28;;;0.60;;
9801;SDS011;4940;50.900;4.672;2023-01-15T05:17:03;1.58;;;0.57;;
9801;SDS011;4940;50.900;4.672;2023-01-15T05:19:30;5.05;;;0.88;;
9801;SDS011;4940;50.900;4.672;2023-01-15T05:21:58;3.13;;;0.95;;
9801;SDS011;4940;50.900;4.672;2023-01-15T05:24:26;2.30;;;0.75;;
9801;SDS011;4940;50.900;4.672;2023-01-15T05:26:53;5.80;;;0.85;;
9801;SDS011;4940;50.900;4.672;2023-01-15T05:29:22;2.67;;;0.95;;
9801;SDS011;4940;50.900;4.672;2023-01-15T05:31:50;5.18;;;0.70;;
9801;SDS011;4940;50.900;4.672;2023-01-15T05:34:17;6.53;;;0.95;;
9801;SDS011;4940;50.900;4.672;2023-01-15T05:36:44;7.85;;;0.93;;
9801;SDS011;4940;50.900;4.672;2023-01-15T05:39:12;6.65;;;0.85;;
9801;SDS011;4940;50.900;4.672;2023-01-15T05:41:40;3.25;;;0.98;;
9801;SDS011;4940;50.900;4.672;2023-01-15T05:44:18;3.85;;;0.80;;
9801;SDS011;4940;50.900;4.672;2023-01-15T05:46:47;2.25;;;0.57;;
9801;SDS011;4940;50.900;4.672;2023-01-15T05:49:16;1.52;;;0.57;;
9801;SDS011;4940;50.900;4.672;2023-01-15T05:51:45;1.88;;;0.47;;
9801;SDS011;4940;50.900;4.672;2023-01-15T05:54:13;1.88;;;0.57;;
9801;SDS011;4940;50.900;4.672;2023-01-15T05:56:43;3.90;;;0.65;;
9801;SDS011;4940;50.900;4.672;2023-01-15T05:59:12;5.57;;;0.93;;
9801;SDS011;4940;50.900;4.672;2023-01-15T06:01:39;5.00;;;0.70;;
9801;SDS011;4940;50.900;4.672;2023-01-15T06:04:07;2.75;;;1.00;;
9801;SDS011;4940;50.900;4.672;2023-01-15T06:06:34;2.22;;;0.70;;
9801;SDS011;4940;50.900;4.672;2023-01-15T06:09:02;6.40;;;0.60;;
9801;SDS011;4940;50.900;4.672;2023-01-15T06:11:30;2.88;;;1.02;;
9801;SDS011;4940;50.900;4.672;2023-01-15T06:13:59;1.88;;;0.60;;
9801;SDS011;4940;50.900;4.672;2023-01-15T06:16:26;1.48;;;0.65;;
9801;SDS011;4940;50.900;4.672;2023-01-15T06:18:54;4.95;;;0.57;;
9801;SDS011;4940;50.900;4.672;2023-01-15T06:21:22;2.33;;;0.50;;
9801;SDS011;4940;50.900;4.672;2023-01-15T06:23:51;1.58;;;0.40;;
9801;SDS011;4940;50.900;4.672;2023-01-15T06:26:19;1.67;;;0.65;;
9801;SDS011;4940;50.900;4.672;2023-01-15T06:28:46;2.28;;;1.00;;
9801;SDS011;4940;50.900;4.672;2023-01-15T06:31:16;3.30;;;0.75;;
9801;SDS011;4940;50.900;4.672;2023-01-15T06:33:44;0.80;;;0.80;;
9801;SDS011;4940;50.900;4.672;2023-01-15T06:36:12;0.95;;;0.70;;
9801;SDS011;4940;50.900;4.672;2023-01-15T06:38:41;0.98;;;0.90;;
9801;SDS011;4940;50.900;4.672;2023-01-15T06:41:09;1.63;;;1.10;;
9801;SDS011;4940;50.900;4.672;2023-01-15T06:43:53;3.53;;;1.30;;
9801;SDS011;4940;50.900;4.672;2023-01-15T06:46:39;1.27;;;1.00;;
9801;SDS011;4940;50.900;4.672;2023-01-15T06:49:27;3.05;;;1.30;;
9801;SDS011;4940;50.900;4.672;2023-01-15T06:51:54;3.05;;;1.65;;
9801;SDS011;4940;50.900;4.672;2023-01-15T06:54:22;4.80;;;1.40;;
9801;SDS011;4940;50.900;4.672;2023-01-15T06:56:49;5.15;;;1.70;;
9801;SDS011;4940;50.900;4.672;2023-01-15T06:59:17;1.85;;;1.67;;
9801;SDS011;4940;50.900;4.672;2023-01-15T07:01:46;2.15;;;1.60;;
9801;SDS011;4940;50.900;4.672;2023-01-15T07:04:13;5.15;;;2.03;;
9801;SDS011;4940;50.900;4.672;2023-01-15T07:06:41;2.95;;;1.80;;
9801;SDS011;4940;50.900;4.672;2023-01-15T07:09:08;7.10;;;2.20;;
9801;SDS011;4940;50.900;4.672;2023-01-15T07:11:35;2.40;;;2.20;;
9801;SDS011;4940;50.900;4.672;2023-01-15T07:14:13;3.28;;;3.08;;
9801;SDS011;4940;50.900;4.672;2023-01-15T07:16:40;7.15;;;2.67;;
9801;SDS011;4940;50.900;4.672;2023-01-15T07:19:09;6.88;;;2.90;;
9801;SDS011;4940;50.900;4.672;2023-01-15T07:21:37;5.10;;;3.60;;
9801;SDS011;4940;50.900;4.672;2023-01-15T07:24:04;6.70;;;3.30;;
9801;SDS011;4940;50.900;4.672;2023-01-15T07:26:32;6.13;;;3.03;;
9801;SDS011;4940;50.900;4.672;2023-01-15T07:28:59;3.53;;;3.20;;
9801;SDS011;4940;50.900;4.672;2023-01-15T07:31:27;4.15;;;3.75;;
9801;SDS011;4940;50.900;4.672;2023-01-15T07:33:54;5.10;;;3.53;;
9801;SDS011;4940;50.900;4.672;2023-01-15T07:36:23;4.18;;;3.70;;
9801;SDS011;4940;50.900;4.672;2023-01-15T07:38:51;5.78;;;3.88;;
9801;SDS011;4940;50.900;4.672;2023-01-15T07:41:19;6.03;;;4.07;;
9801;SDS011;4940;50.900;4.672;2023-01-15T07:44:04;6.60;;;4.50;;
9801;SDS011;4940;50.900;4.672;2023-01-15T07:46:49;7.32;;;3.75;;
9801;SDS011;4940;50.900;4.672;2023-01-15T07:49:34;8.10;;;3.92;;
9801;SDS011;4940;50.900;4.672;2023-01-15T07:52:12;6.43;;;3.75;;
9801;SDS011;4940;50.900;4.672;2023-01-15T07:54:40;4.90;;;3.83;;
9801;SDS011;4940;50.900;4.672;2023-01-15T07:57:08;4.78;;;4.47;;
9801;SDS011;4940;50.900;4.672;2023-01-15T07:59:36;7.70;;;5.68;;
9801;SDS011;4940;50.900;4.672;2023-01-15T08:02:03;6.73;;;5.23;;
9801;SDS011;4940;50.900;4.672;2023-01-15T08:04:31;6.70;;;5.22;;
9801;SDS011;4940;50.900;4.672;2023-01-15T08:06:58;5.13;;;4.70;;
9801;SDS011;4940;50.900;4.672;2023-01-15T08:09:27;6.55;;;4.40;;
9801;SDS011;4940;50.900;4.672;2023-01-15T08:11:57;7.70;;;4.22;;
9801;SDS011;4940;50.900;4.672;2023-01-15T08:14:42;7.07;;;4.88;;
9801;SDS011;4940;50.900;4.672;2023-01-15T08:17:27;6.83;;;4.80;;
9801;SDS011;4940;50.900;4.672;2023-01-15T08:19:55;8.02;;;5.07;;
9801;SDS011;4940;50.900;4.672;2023-01-15T08:22:22;4.90;;;4.50;;
9801;SDS011;4940;50.900;4.672;2023-01-15T08:24:51;6.35;;;5.78;;
9801;SDS011;4940;50.900;4.672;2023-01-15T08:27:18;6.57;;;6.13;;
9801;SDS011;4940;50.900;4.672;2023-01-15T08:29:46;10.15;;;6.35;;
9801;SDS011;4940;50.900;4.672;2023-01-15T08:32:13;8.30;;;6.05;;
9801;SDS011;4940;50.900;4.672;2023-01-15T08:34:41;6.78;;;6.13;;
9801;SDS011;4940;50.900;4.672;2023-01-15T08:37:08;10.18;;;6.45;;
9801;SDS011;4940;50.900;4.672;2023-01-15T08:39:36;8.90;;;7.93;;
9801;SDS011;4940;50.900;4.672;2023-01-15T08:42:05;8.95;;;8.23;;
9801;SDS011;4940;50.900;4.672;2023-01-15T08:44:32;8.40;;;7.57;;
9801;SDS011;4940;50.900;4.672;2023-01-15T08:46:59;7.75;;;7.13;;
9801;SDS011;4940;50.900;4.672;2023-01-15T08:49:27;8.57;;;6.45;;
9801;SDS011;4940;50.900;4.672;2023-01-15T08:51:55;7.15;;;5.40;;
9801;SDS011;4940;50.900;4.672;2023-01-15T08:54:22;6.75;;;4.32;;
9801;SDS011;4940;50.900;4.672;2023-01-15T08:56:50;8.02;;;3.08;;
9801;SDS011;4940;50.900;4.672;2023-01-15T08:59:18;4.93;;;2.15;;
9801;SDS011;4940;50.900;4.672;2023-01-15T09:01:46;4.95;;;1.42;;
9801;SDS011;4940;50.900;4.672;2023-01-15T09:04:13;4.30;;;1.25;;
9801;SDS011;4940;50.900;4.672;2023-01-15T09:06:41;2.35;;;1.08;;
9801;SDS011;4940;50.900;4.672;2023-01-15T09:09:09;5.20;;;1.00;;
9801;SDS011;4940;50.900;4.672;2023-01-15T09:11:38;3.08;;;0.90;;
9801;SDS011;4940;50.900;4.672;2023-01-15T09:14:05;4.85;;;1.65;;
9801;SDS011;4940;50.900;4.672;2023-01-15T09:16:35;4.05;;;0.88;;
9801;SDS011;4940;50.900;4.672;2023-01-15T09:19:02;6.38;;;0.98;;
9801;SDS011;4940;50.900;4.672;2023-01-15T09:21:30;3.17;;;0.75;;
9801;SDS011;4940;50.900;4.672;2023-01-15T09:23:57;4.20;;;0.80;;
9801;SDS011;4940;50.900;4.672;2023-01-15T09:26:26;3.00;;;0.95;;
9801;SDS011;4940;50.900;4.672;2023-01-15T09:28:55;1.70;;;0.70;;
9801;SDS011;4940;50.900;4.672;2023-01-15T09:31:23;3.35;;;0.73;;
9801;SDS011;4940;50.900;4.672;2023-01-15T09:33:52;4.30;;;0.70;;
9801;SDS011;4940;50.900;4.672;2023-01-15T09:36:21;4.45;;;1.20;;
9801;SDS011;4940;50.900;4.672;2023-01-15T09:38:49;3.97;;;0.93;;
9801;SDS011;4940;50.900;4.672;2023-01-15T09:41:17;2.00;;;0.50;;
9801;SDS011;4940;50.900;4.672;2023-01-15T09:44:17;2.40;;;0.75;;
9801;SDS011;4940;50.900;4.672;2023-01-15T09:46:57;2.63;;;0.60;;
9801;SDS011;4940;50.900;4.672;2023-01-15T09:49:36;4.80;;;0.70;;
9801;SDS011;4940;50.900;4.672;2023-01-15T09:52:13;5.28;;;0.93;;
9801;SDS011;4940;50.900;4.672;2023-01-15T09:54:51;3.03;;;0.95;;
9801;SDS011;4940;50.900;4.672;2023-01-15T09:57:25;3.40;;;0.88;;
9801;SDS011;4940;50.900;4.672;2023-01-15T09:59:53;4.55;;;0.65;;
9801;SDS011;4940;50.900;4.672;2023-01-15T10:02:28;1.75;;;0.43;;
9801;SDS011;4940;50.900;4.672;2023-01-15T10:05:03;4.15;;;0.98;;
9801;SDS011;4940;50.900;4.672;2023-01-15T10:07:35;0.70;;;0.30;;
9801;SDS011;4940;50.900;4.672;2023-01-15T10:10:09;2.47;;;0.70;;
9801;SDS011;4940;50.900;4.672;2023-01-15T10:12:40;1.08;;;0.60;;
9801;SDS011;4940;50.900;4.672;2023-01-15T10:15:19;5.88;;;0.75;;
9801;SDS011;4940;50.900;4.672;2023-01-15T10:17:50;1.70;;;0.70;;
9801;SDS011;4940;50.900;4.672;2023-01-15T10:20:31;1.83;;;0.47;;
9801;SDS011;4940;50.900;4.672;2023-01-15T10:26:11;3.45;;;0.60;;
9801;SDS011;4940;50.900;4.672;2023-01-15T10:28:46;1.33;;;0.60;;
9801;SDS011;4940;50.900;4.672;2023-01-15T10:31:38;1.50;;;0.60;;
9801;SDS011;4940;50.900;4.672;2023-01-15T10:34:26;2.10;;;0.80;;
9801;SDS011;4940;50.900;4.672;2023-01-15T10:37:07;0.82;;;0.50;;
9801;SDS011;4940;50.900;4.672;2023-01-15T10:39:40;0.68;;;0.52;;
9801;SDS011;4940;50.900;4.672;2023-01-15T10:42:19;2.40;;;0.60;;
9801;SDS011;4940;50.900;4.672;2023-01-15T10:44:59;1.80;;;0.77;;
9801;SDS011;4940;50.900;4.672;2023-01-15T10:47:33;2.50;;;0.80;;
9801;SDS011;4940;50.900;4.672;2023-01-15T10:50:04;0.90;;;0.50;;
9801;SDS011;4940;50.900;4.672;2023-01-15T10:52:42;1.95;;;0.52;;
9801;SDS011;4940;50.900;4.672;2023-01-15T10:55:16;1.92;;;0.70;;
9801;SDS011;4940;50.900;4.672;2023-01-15T10:57:48;2.70;;;0.80;;
9801;SDS011;4940;50.900;4.672;2023-01-15T11:00:20;0.88;;;0.50;;
9801;SDS011;4940;50.900;4.672;2023-01-15T11:02:49;1.10;;;0.52;;
9801;SDS011;4940;50.900;4.672;2023-01-15T11:05:25;2.28;;;0.43;;
9801;SDS011;4940;50.900;4.672;2023-01-15T11:07:54;2.03;;;0.60;;
9801;SDS011;4940;50.900;4.672;2023-01-15T11:10:22;2.08;;;0.80;;
9801;SDS011;4940;50.900;4.672;2023-01-15T11:12:50;0.93;;;0.50;;
9801;SDS011;4940;50.900;4.672;2023-01-15T11:15:36;3.38;;;0.50;;
9801;SDS011;4940;50.900;4.672;2023-01-15T11:18:22;2.92;;;0.60;;
9801;SDS011;4940;50.900;4.672;2023-01-15T11:21:11;2.40;;;0.90;;
9801;SDS011;4940;50.900;4.672;2023-01-15T11:23:42;2.13;;;0.70;;
9801;SDS011;4940;50.900;4.672;2023-01-15T11:26:10;3.80;;;0.70;;
9801;SDS011;4940;50.900;4.672;2023-01-15T11:28:45;0.77;;;0.55;;
9801;SDS011;4940;50.900;4.672;2023-01-15T11:31:13;2.83;;;0.80;;
9801;SDS011;4940;50.900;4.672;2023-01-15T11:33:42;3.08;;;0.60;;
9801;SDS011;4940;50.900;4.672;2023-01-15T11:36:19;4.63;;;0.77;;
9801;SDS011;4940;50.900;4.672;2023-01-15T11:38:49;3.90;;;1.00;;
9801;SDS011;4940;50.900;4.672;2023-01-15T11:41:19;1.75;;;0.60;;
9801;SDS011;4940;50.900;4.672;2023-01-15T11:43:54;1.70;;;0.70;;
9801;SDS011;4940;50.900;4.672;2023-01-15T11:46:40;4.07;;;1.00;;
9801;SDS011;4940;50.900;4.672;2023-01-15T11:49:25;2.75;;;0.68;;
9801;SDS011;4940;50.900;4.672;2023-01-15T11:52:11;1.42;;;0.50;;
9801;SDS011;4940;50.900;4.672;2023-01-15T11:54:44;4.20;;;1.10;;
9801;SDS011;4940;50.900;4.672;2023-01-15T11:57:22;7.25;;;0.95;;
9801;SDS011;4940;50.900;4.672;2023-01-15T11:59:53;1.05;;;0.70;;
9801;SDS011;4940;50.900;4.672;2023-01-15T12:02:27;1.70;;;0.50;;
9801;SDS011;4940;50.900;4.672;2023-01-15T12:05:00;1.45;;;0.68;;
9801;SDS011;4940;50.900;4.672;2023-01-15T12:07:29;5.22;;;0.80;;
9801;SDS011;4940;50.900;4.672;2023-01-15T12:10:04;2.72;;;0.90;;
9801;SDS011;4940;50.900;4.672;2023-01-15T12:12:42;2.75;;;0.90;;
9801;SDS011;4940;50.900;4.672;2023-01-15T12:15:28;4.22;;;0.70;;
9801;SDS011;4940;50.900;4.672;2023-01-15T12:21:20;1.05;;;0.63;;
9801;SDS011;4940;50.900;4.672;2023-01-15T12:24:28;2.65;;;0.57;;
9801;SDS011;4940;50.900;4.672;2023-01-15T12:27:28;2.30;;;0.80;;
9801;SDS011;4940;50.900;4.672;2023-01-15T12:30:13;2.63;;;1.13;;
9801;SDS011;4940;50.900;4.672;2023-01-15T12:32:48;4.13;;;0.68;;
9801;SDS011;4940;50.900;4.672;2023-01-15T12:35:24;3.15;;;0.98;;
9801;SDS011;4940;50.900;4.672;2023-01-15T12:37:55;4.88;;;1.13;;
9801;SDS011;4940;50.900;4.672;2023-01-15T12:40:27;1.33;;;0.68;;
9801;SDS011;4940;50.900;4.672;2023-01-15T12:43:07;1.05;;;0.85;;
9801;SDS011;4940;50.900;4.672;2023-01-15T12:45:58;2.85;;;0.80;;
9801;SDS011;4940;50.900;4.672;2023-01-15T12:48:28;5.15;;;1.13;;
9801;SDS011;4940;50.900;4.672;2023-01-15T12:51:02;3.17;;;0.90;;
9801;SDS011;4940;50.900;4.672;2023-01-15T12:53:34;1.92;;;0.95;;
9801;SDS011;4940;50.900;4.672;2023-01-15T12:56:04;3.53;;;0.88;;
9801;SDS011;4940;50.900;4.672;2023-01-15T12:58:41;1.30;;;0.70;;
9801;SDS011;4940;50.900;4.672;2023-01-15T13:01:13;2.55;;;0.70;;
9801;SDS011;4940;50.900;4.672;2023-01-15T13:03:47;2.72;;;0.70;;
9801;SDS011;4940;50.900;4.672;2023-01-15T13:06:19;2.38;;;0.80;;
9801;SDS011;4940;50.900;4.672;2023-01-15T13:08:53;4.28;;;0.65;;
9801;SDS011;4940;50.900;4.672;2023-01-15T13:11:25;6.25;;;0.90;;
9801;SDS011;4940;50.900;4.672;2023-01-15T13:13:54;2.80;;;0.55;;
9801;SDS011;4940;50.900;4.672;2023-01-15T13:16:27;1.27;;;0.57;;
9801;SDS011;4940;50.900;4.672;2023-01-15T13:19:22;4.43;;;0.82;;
9801;SDS011;4940;50.900;4.672;2023-01-15T13:21:50;2.05;;;0.75;;
9801;SDS011;4940;50.900;4.672;2023-01-15T13:24:46;3.30;;;0.80;;
9801;SDS011;4940;50.900;4.672;2023-01-15T13:27:33;1.88;;;0.52;;
9801;SDS011;4940;50.900;4.672;2023-01-15T13:30:20;1.42;;;0.50;;
9801;SDS011;4940;50.900;4.672;2023-01-15T13:33:03;2.55;;;0.80;;
9801;SDS011;4940;50.900;4.672;2023-01-15T13:35:43;0.70;;;0.50;;
9801;SDS011;4940;50.900;4.672;2023-01-15T13:38:13;1.40;;;0.55;;
9801;SDS011;4940;50.900;4.672;2023-01-15T13:40:45;1.58;;;0.70;;
9801;SDS011;4940;50.900;4.672;2023-01-15T13:43:27;1.15;;;0.70;;
9801;SDS011;4940;50.900;4.672;2023-01-15T13:46:01;2.03;;;0.55;;
9801;SDS011;4940;50.900;4.672;2023-01-15T13:48:32;1.98;;;0.63;;
9801;SDS011;4940;50.900;4.672;2023-01-15T13:51:02;2.00;;;0.45;;
9801;SDS011;4940;50.900;4.672;2023-01-15T13:53:33;2.30;;;0.60;;
9801;SDS011;4940;50.900;4.672;2023-01-15T13:56:04;3.20;;;0.80;;
9801;SDS011;4940;50.900;4.672;2023-01-15T13:58:34;0.77;;;0.38;;
9801;SDS011;4940;50.900;4.672;2023-01-15T14:01:06;2.80;;;0.80;;
9801;SDS011;4940;50.900;4.672;2023-01-15T14:03:54;1.08;;;0.77;;
9801;SDS011;4940;50.900;4.672;2023-01-15T14:06:36;2.30;;;0.65;;
9801;SDS011;4940;50.900;4.672;2023-01-15T14:09:05;1.33;;;0.68;;
9801;SDS011;4940;50.900;4.672;2023-01-15T14:11:34;2.70;;;0.70;;
9801;SDS011;4940;50.900;4.672;2023-01-15T14:17:05;1.42;;;0.75;;
9801;SDS011;4940;50.900;4.672;2023-01-15T14:19:57;0.57;;;0.52;;
9801;SDS011;4940;50.900;4.672;2023-01-15T14:22:45;1.30;;;0.70;;
9801;SDS011;4940;50.900;4.672;2023-01-15T14:25:26;0.98;;;0.88;;
9801;SDS011;4940;50.900;4.672;2023-01-15T14:28:08;5.72;;;0.93;;
9801;SDS011;4940;50.900;4.672;2023-01-15T14:36:45;3.40;;;0.82;;
9801;SDS011;4940;50.900;4.672;2023-01-15T14:42:06;5.20;;;0.70;;
9801;SDS011;4940;50.900;4.672;2023-01-15T14:44:57;3.15;;;0.90;;
9801;SDS011;4940;50.900;4.672;2023-01-15T14:47:27;2.15;;;0.77;;
9801;SDS011;4940;50.900;4.672;2023-01-15T14:50:01;3.47;;;0.90;;
9801;SDS011;4940;50.900;4.672;2023-01-15T14:52:49;1.08;;;0.73;;
9801;SDS011;4940;50.900;4.672;2023-01-15T14:55:17;1.80;;;0.80;;
9801;SDS011;4940;50.900;4.672;2023-01-15T14:57:48;4.95;;;1.27;;
9801;SDS011;4940;50.900;4.672;2023-01-15T15:00:21;1.63;;;0.70;;
9801;SDS011;4940;50.900;4.672;2023-01-15T15:02:50;3.03;;;0.80;;
9801;SDS011;4940;50.900;4.672;2023-01-15T15:05:19;3.95;;;0.60;;
9801;SDS011;4940;50.900;4.672;2023-01-15T15:07:49;3.40;;;0.88;;
9801;SDS011;4940;50.900;4.672;2023-01-15T15:10:20;4.10;;;0.77;;
9801;SDS011;4940;50.900;4.672;2023-01-15T15:12:52;3.63;;;0.77;;
9801;SDS011;4940;50.900;4.672;2023-01-15T15:15:37;1.13;;;0.70;;
9801;SDS011;4940;50.900;4.672;2023-01-15T15:18:13;2.05;;;0.70;;
9801;SDS011;4940;50.900;4.672;2023-01-15T15:20:52;3.95;;;0.90;;
9801;SDS011;4940;50.900;4.672;2023-01-15T15:23:27;1.70;;;0.68;;
9801;SDS011;4940;50.900;4.672;2023-01-15T15:26:00;0.70;;;0.60;;
9801;SDS011;4940;50.900;4.672;2023-01-15T15:28:28;1.98;;;1.00;;
9801;SDS011;4940;50.900;4.672;2023-01-15T15:30:56;2.45;;;0.80;;
9801;SDS011;4940;50.900;4.672;2023-01-15T15:33:26;4.25;;;1.08;;
9801;SDS011;4940;50.900;4.672;2023-01-15T15:36:02;1.83;;;0.90;;
9801;SDS011;4940;50.900;4.672;2023-01-15T15:38:30;2.38;;;0.82;;
9801;SDS011;4940;50.900;4.672;2023-01-15T15:40:58;4.03;;;1.10;;
9801;SDS011;4940;50.900;4.672;2023-01-15T15:43:28;0.80;;;0.70;;
9801;SDS011;4940;50.900;4.672;2023-01-15T15:46:22;1.67;;;1.02;;
9801;SDS011;4940;50.900;4.672;2023-01-15T15:49:09;3.40;;;1.00;;
9801;SDS011;4940;50.900;4.672;2023-01-15T15:51:38;3.47;;;1.40;;
9801;SDS011;4940;50.900;4.672;2023-01-15T15:54:11;5.15;;;1.35;;
9801;SDS011;4940;50.900;4.672;2023-01-15T15:56:43;3.03;;;0.90;;
9801;SDS011;4940;50.900;4.672;2023-01-15T15:59:15;4.78;;;1.00;;
9801;SDS011;4940;50.900;4.672;2023-01-15T16:01:48;1.88;;;1.05;;
9801;SDS011;4940;50.900;4.672;2023-01-15T16:04:16;2.90;;;1.15;;